createdAt,value
2017-05-29T00:00:47.275Z,18.20
2017-05-29T00:03:16.524Z,18.30
2017-05-29T00:05:45.742Z,18.30
2017-05-29T00:08:14.952Z,18.20
2017-05-29T00:10:44.171Z,17.90
2017-05-29T00:13:13.387Z,17.90
2017-05-29T00:15:42.600Z,18.00
2017-05-29T00:18:11.820Z,18.10
2017-05-29T00:20:41.172Z,18.20
2017-05-29T00:23:10.391Z,18.10
2017-05-29T00:25:39.619Z,18.00
2017-05-29T00:28:09.048Z,17.90
2017-05-29T00:30:38.267Z,17.90
2017-05-29T00:33:07.464Z,17.80
2017-05-29T00:35:36.687Z,17.90
2017-05-29T00:38:05.894Z,17.90
2017-05-29T00:40:35.122Z,18.00
2017-05-29T00:43:04.342Z,18.00
2017-05-29T00:45:33.641Z,17.90
2017-05-29T00:48:02.835Z,17.80
2017-05-29T00:50:32.039Z,17.80
2017-05-29T00:53:01.251Z,17.60
2017-05-29T00:55:30.473Z,17.60
2017-05-29T00:57:59.683Z,17.60
2017-05-29T01:00:28.908Z,17.80
2017-05-29T01:02:58.108Z,17.70
2017-05-29T01:05:27.306Z,17.60
2017-05-29T01:07:56.688Z,17.60
2017-05-29T01:10:25.988Z,17.40
2017-05-29T01:12:55.205Z,17.40
2017-05-29T01:15:24.420Z,17.40
2017-05-29T01:17:53.651Z,17.40
2017-05-29T01:20:22.824Z,17.50
2017-05-29T01:22:52.103Z,17.60
2017-05-29T01:25:21.324Z,17.60
2017-05-29T01:27:50.527Z,17.50
2017-05-29T01:30:19.863Z,17.30
2017-05-29T01:32:49.095Z,17.30
2017-05-29T01:35:18.298Z,17.40
2017-05-29T01:37:47.519Z,17.50
2017-05-29T01:40:16.746Z,17.50
2017-05-29T01:42:45.966Z,17.60
2017-05-29T01:45:15.204Z,17.60
2017-05-29T01:47:44.520Z,17.60
2017-05-29T01:50:13.870Z,17.70
2017-05-29T01:52:43.156Z,17.70
2017-05-29T01:55:12.379Z,17.70
2017-05-29T01:57:41.589Z,17.60
2017-05-29T02:00:10.896Z,17.50
2017-05-29T02:02:40.127Z,17.40
2017-05-29T02:05:09.359Z,17.20
2017-05-29T02:07:38.574Z,17.00
2017-05-29T02:10:07.787Z,16.90
2017-05-29T02:12:37.041Z,16.90
2017-05-29T02:15:06.276Z,17.00
2017-05-29T02:17:35.571Z,17.00
2017-05-29T02:20:04.809Z,17.00
2017-05-29T02:22:34.106Z,17.10
2017-05-29T02:25:03.440Z,17.10
2017-05-29T02:27:32.648Z,17.00
2017-05-29T02:30:01.856Z,17.00
2017-05-29T02:32:31.096Z,16.90
2017-05-29T02:35:00.313Z,16.80
2017-05-29T02:37:30.249Z,16.90
2017-05-29T02:39:59.464Z,16.90
2017-05-29T02:42:28.700Z,16.90
2017-05-29T02:44:57.896Z,16.90
2017-05-29T02:47:27.107Z,16.80
2017-05-29T02:49:57.010Z,16.70
2017-05-29T02:52:26.208Z,16.60
2017-05-29T02:54:55.432Z,16.50
2017-05-29T02:57:24.595Z,16.50
2017-05-29T02:59:53.801Z,16.40
2017-05-29T03:02:23.113Z,16.50
2017-05-29T03:04:52.307Z,16.60
2017-05-29T03:07:22.227Z,16.60
2017-05-29T03:09:51.421Z,16.50
2017-05-29T03:12:20.644Z,16.40
2017-05-29T03:14:50.541Z,16.30
2017-05-29T03:17:21.059Z,16.30
2017-05-29T03:19:50.262Z,16.30
2017-05-29T03:22:19.480Z,16.30
2017-05-29T03:24:48.688Z,16.20
2017-05-29T03:27:17.904Z,16.30
2017-05-29T03:29:47.128Z,16.20
2017-05-29T03:32:16.331Z,16.20
2017-05-29T03:34:45.558Z,16.20
2017-05-29T03:37:14.763Z,16.20
2017-05-29T03:39:43.967Z,16.20
2017-05-29T03:42:13.887Z,16.10
2017-05-29T03:44:43.166Z,16.10
2017-05-29T03:47:12.389Z,16.10
2017-05-29T03:49:41.744Z,16.10
2017-05-29T03:52:10.938Z,16.20
2017-05-29T03:54:40.171Z,16.30
2017-05-29T03:57:09.388Z,16.50
2017-05-29T03:59:38.619Z,16.50
2017-05-29T04:02:07.842Z,16.50
2017-05-29T04:04:37.061Z,16.60
2017-05-29T04:07:06.277Z,16.70
2017-05-29T04:09:35.659Z,16.80
2017-05-29T04:12:04.880Z,16.80
2017-05-29T04:14:34.083Z,16.80
2017-05-29T04:17:03.379Z,16.90
2017-05-29T04:19:32.583Z,16.80
2017-05-29T04:22:01.812Z,16.80
2017-05-29T04:24:31.028Z,16.90
2017-05-29T04:27:00.230Z,17.10
2017-05-29T04:29:29.447Z,17.10
2017-05-29T04:31:58.651Z,17.30
2017-05-29T04:34:27.882Z,17.40
2017-05-29T04:36:57.081Z,17.60
2017-05-29T04:39:26.312Z,17.70
2017-05-29T04:41:55.536Z,17.60
2017-05-29T04:44:24.731Z,17.60
2017-05-29T04:46:53.943Z,17.60
2017-05-29T04:49:23.174Z,17.80
2017-05-29T04:51:52.392Z,17.90
2017-05-29T04:54:21.625Z,18.00
2017-05-29T04:56:50.919Z,18.00
2017-05-29T04:59:20.135Z,18.10
2017-05-29T05:01:49.356Z,18.10
2017-05-29T05:04:18.552Z,18.20
2017-05-29T05:06:47.770Z,18.30
2017-05-29T05:09:17.071Z,18.30
2017-05-29T05:11:46.324Z,18.20
2017-05-29T05:14:15.524Z,18.30
2017-05-29T05:16:44.755Z,18.40
2017-05-29T05:19:13.969Z,18.70
2017-05-29T05:21:43.185Z,18.90
2017-05-29T05:24:12.387Z,19.10
2017-05-29T05:26:41.611Z,19.20
2017-05-29T05:29:10.816Z,19.40
2017-05-29T05:31:40.018Z,19.60
2017-05-29T05:34:09.240Z,19.60
2017-05-29T05:36:38.465Z,19.70
2017-05-29T05:39:07.672Z,19.80
2017-05-29T05:41:36.899Z,20.10
2017-05-29T05:44:06.117Z,20.30
2017-05-29T05:46:35.347Z,20.40
2017-05-29T05:49:04.555Z,20.60
2017-05-29T05:51:33.800Z,20.80
2017-05-29T05:54:02.997Z,20.90
2017-05-29T05:56:32.219Z,21.10
2017-05-29T05:59:01.423Z,21.20
2017-05-29T06:01:30.633Z,21.20
2017-05-29T06:03:59.857Z,21.30
2017-05-29T06:06:29.063Z,21.40
2017-05-29T06:08:58.291Z,21.40
2017-05-29T06:11:27.596Z,21.50
2017-05-29T06:13:56.811Z,21.50
2017-05-29T06:16:26.738Z,21.50
2017-05-29T06:18:55.944Z,21.60
2017-05-29T06:21:25.169Z,21.60
2017-05-29T06:23:55.065Z,21.70
2017-05-29T06:26:24.300Z,21.90
2017-05-29T06:28:53.502Z,22.00
2017-05-29T06:31:22.703Z,22.10
2017-05-29T06:33:51.924Z,22.00
2017-05-29T06:36:21.132Z,22.00
2017-05-29T06:38:50.353Z,22.00
2017-05-29T06:41:19.612Z,22.10
2017-05-29T06:43:48.816Z,22.30
2017-05-29T06:46:18.032Z,22.30
2017-05-29T06:48:46.463Z,22.30
2017-05-29T06:51:15.784Z,22.40
2017-05-29T06:53:44.990Z,22.50
2017-05-29T06:56:13.482Z,22.50
2017-05-29T06:58:42.682Z,22.70
2017-05-29T07:01:11.963Z,22.70
2017-05-29T07:03:41.201Z,22.80
2017-05-29T07:06:10.421Z,22.90
2017-05-29T07:08:39.660Z,23.00
2017-05-29T07:11:08.873Z,23.00
2017-05-29T07:13:38.096Z,23.20
2017-05-29T07:16:07.301Z,23.20
2017-05-29T07:18:37.219Z,23.30
2017-05-29T07:21:06.454Z,23.30
2017-05-29T07:23:35.676Z,23.40
2017-05-29T07:26:04.891Z,23.40
2017-05-29T07:28:33.344Z,23.40
2017-05-29T07:31:01.779Z,23.60
2017-05-29T07:33:31.037Z,23.80
2017-05-29T07:36:00.266Z,23.90
2017-05-29T07:38:29.465Z,24.00
2017-05-29T07:40:58.680Z,24.10
2017-05-29T07:43:27.908Z,24.30
2017-05-29T07:45:57.119Z,24.30
2017-05-29T07:48:26.344Z,24.50
2017-05-29T07:50:55.562Z,24.70
2017-05-29T07:53:24.815Z,25.00
2017-05-29T07:55:54.024Z,24.90
2017-05-29T07:58:23.306Z,24.90
2017-05-29T08:00:52.527Z,24.80
2017-05-29T08:03:21.744Z,24.80
2017-05-29T08:05:50.967Z,24.90
2017-05-29T08:08:20.185Z,25.10
2017-05-29T08:10:49.419Z,25.10
2017-05-29T08:13:18.634Z,25.10
2017-05-29T08:15:47.854Z,25.40
2017-05-29T08:18:17.054Z,25.50
2017-05-29T08:20:46.279Z,25.60
2017-05-29T08:23:15.485Z,25.60
2017-05-29T08:25:44.693Z,25.60
2017-05-29T08:28:14.623Z,25.70
2017-05-29T08:30:43.471Z,26.20
2017-05-29T08:33:12.684Z,26.10
2017-05-29T08:35:41.930Z,26.10
2017-05-29T08:38:11.819Z,26.10
2017-05-29T08:40:41.053Z,26.60
2017-05-29T08:43:10.940Z,26.50
2017-05-29T08:45:40.163Z,26.20
2017-05-29T08:48:09.565Z,26.40
2017-05-29T08:50:38.007Z,26.30
2017-05-29T08:53:07.224Z,26.70
2017-05-29T08:55:36.444Z,26.80
2017-05-29T08:58:05.659Z,26.70
2017-05-29T09:00:34.107Z,26.60
2017-05-29T09:03:03.308Z,26.70
2017-05-29T09:05:31.800Z,26.70
2017-05-29T09:08:00.989Z,26.90
2017-05-29T09:10:30.212Z,27.10
2017-05-29T09:12:59.415Z,27.40
2017-05-29T09:15:28.644Z,27.40
2017-05-29T09:17:57.879Z,27.40
2017-05-29T09:20:27.086Z,27.30
2017-05-29T09:22:56.305Z,27.30
2017-05-29T09:25:25.514Z,27.40
2017-05-29T09:27:54.727Z,27.40
2017-05-29T09:30:24.027Z,27.60
2017-05-29T09:32:53.249Z,27.50
2017-05-29T09:35:22.463Z,27.80
2017-05-29T09:37:51.675Z,27.80
2017-05-29T09:40:20.131Z,27.70
2017-05-29T09:42:49.350Z,27.70
2017-05-29T09:45:17.801Z,27.70
2017-05-29T09:47:47.029Z,28.00
2017-05-29T09:50:16.248Z,27.80
2017-05-29T09:52:45.459Z,27.80
2017-05-29T09:55:14.698Z,28.00
2017-05-29T09:57:43.907Z,28.20
2017-05-29T10:00:13.123Z,28.30
2017-05-29T10:02:42.327Z,28.30
2017-05-29T10:05:11.542Z,28.40
2017-05-29T10:07:40.776Z,28.60
2017-05-29T10:10:09.995Z,28.80
2017-05-29T10:12:39.201Z,28.80
2017-05-29T10:15:08.408Z,28.90
2017-05-29T10:17:36.869Z,28.90
2017-05-29T10:20:05.299Z,29.00
2017-05-29T10:22:34.502Z,28.80
2017-05-29T10:25:02.987Z,28.80
2017-05-29T10:27:32.887Z,29.20
2017-05-29T10:30:02.780Z,29.00
2017-05-29T10:32:32.684Z,29.10
2017-05-29T10:35:01.901Z,29.30
2017-05-29T10:37:30.343Z,29.30
2017-05-29T10:39:59.535Z,29.30
2017-05-29T10:42:28.742Z,29.20
2017-05-29T10:44:57.172Z,29.10
2017-05-29T10:47:25.623Z,29.30
2017-05-29T10:49:54.057Z,30.90
2017-05-29T10:52:23.259Z,30.00
2017-05-29T10:54:52.473Z,29.80
2017-05-29T10:57:21.667Z,29.60
2017-05-29T10:59:50.907Z,29.90
2017-05-29T11:02:20.103Z,30.00
2017-05-29T11:04:49.308Z,29.80
2017-05-29T11:07:17.878Z,29.80
2017-05-29T11:09:47.754Z,30.10
2017-05-29T11:12:16.974Z,30.00
2017-05-29T11:14:46.203Z,30.00
2017-05-29T11:17:15.423Z,29.90
2017-05-29T11:19:44.642Z,30.00
2017-05-29T11:22:13.839Z,30.30
2017-05-29T11:24:42.329Z,30.20
2017-05-29T11:27:10.776Z,30.50
2017-05-29T11:29:40.005Z,30.70
2017-05-29T11:32:09.228Z,31.00
2017-05-29T11:34:38.502Z,31.20
2017-05-29T11:37:06.975Z,31.10
2017-05-29T11:39:35.435Z,31.20
2017-05-29T11:42:04.660Z,31.50
2017-05-29T11:44:33.859Z,31.60
2017-05-29T11:47:03.106Z,31.30
2017-05-29T11:49:32.292Z,31.40
2017-05-29T11:52:00.763Z,31.40
2017-05-29T11:54:30.083Z,31.50
2017-05-29T11:56:58.575Z,31.40
2017-05-29T11:59:27.003Z,31.80
2017-05-29T12:01:56.200Z,32.00
2017-05-29T12:04:25.422Z,32.10
2017-05-29T12:06:54.628Z,32.20
2017-05-29T12:09:23.835Z,32.30
2017-05-29T12:11:52.295Z,32.30
2017-05-29T12:14:21.515Z,32.80
2017-05-29T12:16:49.964Z,32.70
2017-05-29T12:19:18.404Z,33.20
2017-05-29T12:21:47.627Z,32.90
2017-05-29T12:24:16.832Z,32.90
2017-05-29T12:26:46.072Z,33.10
2017-05-29T12:29:15.277Z,33.20
2017-05-29T12:31:44.475Z,33.40
2017-05-29T12:34:13.791Z,33.30
2017-05-29T12:36:42.978Z,33.60
2017-05-29T12:39:12.210Z,33.80
2017-05-29T12:41:41.414Z,34.10
2017-05-29T12:44:10.646Z,33.70
2017-05-29T12:46:39.864Z,33.00
2017-05-29T12:49:08.308Z,32.90
2017-05-29T12:51:38.340Z,32.70
2017-05-29T12:54:07.542Z,33.20
2017-05-29T12:56:36.030Z,33.10
2017-05-29T12:59:05.967Z,34.20
2017-05-29T13:01:35.195Z,34.50
2017-05-29T13:04:04.392Z,34.80
2017-05-29T13:06:33.534Z,34.70
2017-05-29T13:09:02.767Z,34.70
2017-05-29T13:11:32.088Z,34.50
2017-05-29T13:14:01.316Z,34.80
2017-05-29T13:16:30.524Z,35.10
2017-05-29T13:18:59.033Z,35.10
2017-05-29T13:21:28.161Z,35.30
2017-05-29T13:23:57.352Z,35.50
2017-05-29T13:26:25.832Z,35.50
2017-05-29T13:28:55.029Z,35.40
2017-05-29T13:31:24.938Z,35.50
2017-05-29T13:33:54.146Z,35.30
2017-05-29T13:36:22.604Z,35.30
2017-05-29T13:38:51.790Z,35.00
2017-05-29T13:41:20.247Z,34.90
2017-05-29T13:43:49.479Z,33.80
2017-05-29T13:46:18.696Z,34.10
2017-05-29T13:48:47.163Z,34.00
2017-05-29T13:51:17.399Z,34.80
2017-05-29T13:53:46.603Z,34.60
2017-05-29T13:56:15.800Z,34.80
2017-05-29T13:58:44.939Z,34.80
2017-05-29T14:01:14.183Z,35.40
2017-05-29T14:03:43.450Z,35.50
2017-05-29T14:06:12.659Z,35.40
2017-05-29T14:08:41.885Z,35.70
2017-05-29T14:11:11.088Z,35.70
2017-05-29T14:13:40.276Z,36.20
2017-05-29T14:16:08.722Z,36.10
2017-05-29T14:18:38.136Z,36.20
2017-05-29T14:21:07.352Z,36.60
2017-05-29T14:23:36.592Z,36.40
2017-05-29T14:26:05.828Z,36.50
2017-05-29T14:28:35.095Z,36.30
2017-05-29T14:31:04.290Z,36.60
2017-05-29T14:33:33.519Z,36.60
2017-05-29T14:36:02.848Z,36.50
2017-05-29T14:38:32.299Z,36.40
2017-05-29T14:41:01.516Z,36.50
2017-05-29T14:43:30.713Z,36.30
2017-05-29T14:45:59.223Z,36.20
2017-05-29T14:48:27.672Z,36.20
2017-05-29T14:50:56.165Z,35.80
2017-05-29T14:53:25.384Z,36.00
2017-05-29T14:55:54.614Z,35.50
2017-05-29T14:58:23.836Z,35.20
2017-05-29T15:00:52.281Z,35.20
2017-05-29T15:03:21.508Z,35.40
2017-05-29T15:05:49.940Z,35.30
2017-05-29T15:08:19.161Z,35.00
2017-05-29T15:10:47.607Z,35.00
2017-05-29T15:13:16.807Z,34.60
2017-05-29T15:15:46.028Z,34.50
2017-05-29T15:18:15.245Z,34.70
2017-05-29T15:20:44.476Z,34.90
2017-05-29T15:23:13.683Z,34.80
2017-05-29T15:25:42.911Z,35.00
2017-05-29T15:28:12.121Z,34.80
2017-05-29T15:30:41.345Z,35.00
2017-05-29T15:33:10.560Z,35.00
2017-05-29T15:35:39.796Z,34.70
2017-05-29T15:38:09.014Z,34.00
2017-05-29T15:40:38.215Z,34.10
2017-05-29T15:43:07.431Z,34.20
2017-05-29T15:45:36.447Z,34.50
2017-05-29T15:48:05.671Z,33.40
2017-05-29T15:50:34.983Z,33.30
2017-05-29T15:53:04.219Z,33.50
2017-05-29T15:55:32.663Z,33.40
2017-05-29T15:58:01.107Z,33.70
2017-05-29T16:00:29.626Z,33.30
2017-05-29T16:02:59.516Z,33.20
2017-05-29T16:05:28.741Z,32.70
2017-05-29T16:07:58.052Z,32.50
2017-05-29T16:10:27.250Z,32.30
2017-05-29T16:12:56.535Z,32.00
2017-05-29T16:15:25.747Z,31.80
2017-05-29T16:17:54.991Z,31.40
2017-05-29T16:20:23.502Z,31.40
2017-05-29T16:22:52.721Z,31.20
2017-05-29T16:25:21.960Z,31.50
2017-05-29T16:27:50.396Z,31.50
2017-05-29T16:30:19.635Z,31.30
2017-05-29T16:32:48.853Z,31.30
2017-05-29T16:35:17.300Z,31.30
2017-05-29T16:37:46.513Z,31.10
2017-05-29T16:40:14.964Z,31.00
2017-05-29T16:42:44.273Z,31.30
2017-05-29T16:45:12.739Z,31.20
2017-05-29T16:47:41.175Z,31.80
2017-05-29T16:50:09.636Z,32.30
2017-05-29T16:52:38.869Z,31.80
2017-05-29T16:55:08.084Z,31.90
2017-05-29T16:57:37.296Z,32.10
2017-05-29T17:00:06.513Z,32.20
2017-05-29T17:02:35.745Z,32.50
2017-05-29T17:05:04.968Z,32.60
2017-05-29T17:07:34.170Z,32.20
2017-05-29T17:10:02.739Z,32.10
2017-05-29T17:12:32.025Z,31.80
2017-05-29T17:15:00.455Z,31.70
2017-05-29T17:17:29.686Z,31.60
2017-05-29T17:19:58.132Z,31.50
2017-05-29T17:22:27.367Z,30.90
2017-05-29T17:24:55.795Z,30.90
2017-05-29T17:27:25.003Z,30.80
2017-05-29T17:29:54.232Z,30.70
2017-05-29T17:32:23.448Z,30.50
2017-05-29T17:34:52.666Z,30.20
2017-05-29T17:37:22.567Z,30.10
2017-05-29T17:39:52.512Z,30.10
2017-05-29T17:42:21.713Z,30.00
2017-05-29T17:44:50.943Z,29.80
2017-05-29T17:47:20.159Z,29.70
2017-05-29T17:49:49.841Z,29.50
2017-05-29T17:52:19.048Z,29.40
2017-05-29T17:54:48.288Z,29.30
2017-05-29T17:57:17.500Z,29.20
2017-05-29T17:59:46.790Z,29.10
2017-05-29T18:02:16.028Z,28.90
2017-05-29T18:04:45.235Z,28.70
2017-05-29T18:07:14.464Z,28.50
2017-05-29T18:09:43.671Z,28.40
2017-05-29T18:12:12.873Z,28.30
2017-05-29T18:14:42.124Z,28.20
2017-05-29T18:17:11.338Z,28.20
2017-05-29T18:19:40.569Z,28.00
2017-05-29T18:22:09.789Z,28.00
2017-05-29T18:24:39.031Z,27.80
2017-05-29T18:27:08.237Z,27.80
2017-05-29T18:29:37.464Z,27.60
2017-05-29T18:32:06.705Z,27.40
2017-05-29T18:34:36.008Z,27.40
2017-05-29T18:37:05.296Z,27.20
2017-05-29T18:39:34.532Z,27.20
2017-05-29T18:42:03.768Z,27.10
2017-05-29T18:44:32.964Z,26.90
2017-05-29T18:47:02.199Z,26.90
2017-05-29T18:49:31.414Z,26.80
2017-05-29T18:52:00.633Z,26.60
2017-05-29T18:54:29.855Z,26.30
2017-05-29T18:56:59.065Z,26.30
2017-05-29T18:59:28.279Z,26.20
2017-05-29T19:01:57.507Z,26.10
2017-05-29T19:04:26.763Z,26.10
2017-05-29T19:06:55.937Z,26.00
2017-05-29T19:09:25.179Z,25.80
2017-05-29T19:11:54.395Z,25.40
2017-05-29T19:14:23.624Z,25.10
2017-05-29T19:16:52.839Z,25.10
2017-05-29T19:19:22.053Z,25.10
2017-05-29T19:21:51.263Z,25.00
2017-05-29T19:24:20.497Z,24.90
2017-05-29T19:26:49.515Z,24.90
2017-05-29T19:29:18.728Z,24.80
2017-05-29T19:31:48.086Z,24.60
2017-05-29T19:34:17.308Z,24.40
2017-05-29T19:36:46.548Z,24.20
2017-05-29T19:39:15.757Z,24.00
2017-05-29T19:41:45.004Z,23.70
2017-05-29T19:44:14.887Z,23.60
2017-05-29T19:46:44.158Z,23.50
2017-05-29T19:49:13.388Z,23.50
2017-05-29T19:51:42.644Z,23.60
2017-05-29T19:54:11.892Z,23.60
2017-05-29T19:56:41.116Z,23.70
2017-05-29T19:59:10.336Z,23.70
2017-05-29T20:01:39.592Z,23.70
2017-05-29T20:04:08.819Z,23.70
2017-05-29T20:06:38.064Z,23.60
2017-05-29T20:09:07.292Z,23.50
2017-05-29T20:11:36.505Z,23.40
2017-05-29T20:14:05.752Z,23.40
2017-05-29T20:16:34.988Z,23.30
2017-05-29T20:19:04.236Z,23.20
2017-05-29T20:21:33.456Z,23.20
2017-05-29T20:24:02.814Z,23.20
2017-05-29T20:26:32.045Z,23.10
2017-05-29T20:29:01.985Z,23.00
2017-05-29T20:31:31.208Z,22.90
2017-05-29T20:34:00.440Z,22.80
2017-05-29T20:36:29.668Z,22.80
2017-05-29T20:38:59.015Z,22.60
2017-05-29T20:41:28.394Z,22.20
2017-05-29T20:43:57.619Z,22.00
2017-05-29T20:46:26.837Z,22.00
2017-05-29T20:48:56.063Z,22.10
2017-05-29T20:51:25.300Z,22.10
2017-05-29T20:53:54.572Z,22.20
2017-05-29T20:56:23.809Z,22.20
2017-05-29T20:58:53.714Z,22.30
2017-05-29T21:01:22.955Z,22.30
2017-05-29T21:03:52.205Z,22.30
2017-05-29T21:06:21.412Z,22.40
2017-05-29T21:08:50.662Z,22.40
2017-05-29T21:11:19.860Z,22.40
2017-05-29T21:13:48.749Z,22.40
2017-05-29T21:16:17.960Z,22.40
2017-05-29T21:18:47.231Z,22.40
2017-05-29T21:21:16.418Z,22.50
2017-05-29T21:23:45.640Z,22.50
2017-05-29T21:26:14.888Z,22.60
2017-05-29T21:28:44.099Z,22.60
2017-05-29T21:31:13.382Z,22.70
2017-05-29T21:33:42.591Z,22.80
2017-05-29T21:36:11.808Z,22.80
2017-05-29T21:38:41.027Z,22.70
2017-05-29T21:41:10.943Z,22.60
2017-05-29T21:43:40.164Z,22.70
2017-05-29T21:46:09.422Z,22.70
2017-05-29T21:48:38.684Z,22.60
2017-05-29T21:51:07.900Z,22.60
2017-05-29T21:53:37.154Z,22.50
2017-05-29T21:56:06.364Z,22.50
2017-05-29T21:58:35.685Z,22.50
2017-05-29T22:01:04.891Z,22.50
2017-05-29T22:03:34.116Z,22.70
2017-05-29T22:06:03.478Z,22.70
2017-05-29T22:08:32.701Z,22.60
2017-05-29T22:11:01.911Z,22.60
2017-05-29T22:13:31.128Z,22.80
2017-05-29T22:16:00.369Z,22.90
2017-05-29T22:18:29.592Z,23.00
2017-05-29T22:20:58.811Z,23.10
2017-05-29T22:23:28.121Z,23.10
2017-05-29T22:25:57.348Z,23.20
2017-05-29T22:28:27.241Z,23.30
2017-05-29T22:30:56.476Z,23.50
2017-05-29T22:33:25.704Z,23.50
2017-05-29T22:35:54.901Z,23.50
2017-05-29T22:38:24.118Z,23.40
2017-05-29T22:40:53.365Z,23.20
2017-05-29T22:43:22.579Z,23.10
2017-05-29T22:45:51.781Z,22.90
2017-05-29T22:48:21.123Z,22.90
2017-05-29T22:50:50.332Z,22.90
2017-05-29T22:53:19.543Z,23.10
2017-05-29T22:55:48.760Z,23.20
2017-05-29T22:58:18.018Z,23.40
2017-05-29T23:00:47.374Z,23.50
2017-05-29T23:03:16.579Z,23.10
2017-05-29T23:05:45.875Z,23.20
2017-05-29T23:08:15.092Z,23.40
2017-05-29T23:10:44.341Z,23.40
2017-05-29T23:13:13.563Z,23.40
2017-05-29T23:15:42.775Z,22.80
2017-05-29T23:18:12.003Z,22.40
2017-05-29T23:20:41.212Z,22.30
2017-05-29T23:23:10.443Z,22.00
2017-05-29T23:25:39.673Z,21.80
2017-05-29T23:28:08.915Z,21.70
2017-05-29T23:30:38.220Z,21.70
2017-05-29T23:33:07.441Z,21.60
2017-05-29T23:35:36.675Z,21.50
2017-05-29T23:38:05.868Z,21.50
2017-05-29T23:40:35.092Z,21.40
2017-05-29T23:43:04.288Z,21.40
2017-05-29T23:45:33.501Z,21.50
2017-05-29T23:48:02.817Z,21.60
2017-05-29T23:50:32.036Z,21.50
2017-05-29T23:53:01.396Z,21.30
2017-05-29T23:55:30.595Z,21.20
2017-05-29T23:57:59.856Z,20.10
